sensor_id;sensor_type;location;lat;lon;timestamp;P1;durP1;ratioP1;P2;durP2;ratioP2
1699;SDS011;847;48.058;7.810;2022-07-23T00:00:09;8.30;;;7.63;;
1699;SDS011;847;48.058;7.810;2022-07-23T00:02:36;7.80;;;7.20;;
1699;SDS011;847;48.058;7.810;2022-07-23T00:05:03;7.87;;;7.07;;
1699;SDS011;847;48.058;7.810;2022-07-23T00:07:32;7.43;;;6.83;;
1699;SDS011;847;48.058;7.810;2022-07-23T00:09:58;8.17;;;7.57;;
1699;SDS011;847;48.058;7.810;2022-07-23T00:12:25;7.87;;;7.10;;
1699;SDS011;847;48.058;7.810;2022-07-23T00:14:52;8.87;;;8.00;;
1699;SDS011;847;48.058;7.810;2022-07-23T00:17:18;8.60;;;7.80;;
1699;SDS011;847;48.058;7.810;2022-07-23T00:19:45;8.27;;;7.57;;
1699;SDS011;847;48.058;7.810;2022-07-23T00:22:12;7.93;;;7.23;;
1699;SDS011;847;48.058;7.810;2022-07-23T00:24:40;7.40;;;6.80;;
1699;SDS011;847;48.058;7.810;2022-07-23T00:27:07;7.00;;;6.40;;
1699;SDS011;847;48.058;7.810;2022-07-23T00:29:33;7.70;;;7.10;;
1699;SDS011;847;48.058;7.810;2022-07-23T00:32:00;7.80;;;7.20;;
1699;SDS011;847;48.058;7.810;2022-07-23T00:34:27;7.53;;;6.83;;
1699;SDS011;847;48.058;7.810;2022-07-23T00:36:54;8.97;;;6.40;;
1699;SDS011;847;48.058;7.810;2022-07-23T00:39:21;7.60;;;7.00;;
1699;SDS011;847;48.058;7.810;2022-07-23T00:41:49;9.00;;;8.20;;
1699;SDS011;847;48.058;7.810;2022-07-23T00:44:17;8.27;;;7.57;;
1699;SDS011;847;48.058;7.810;2022-07-23T00:46:46;7.30;;;6.70;;
1699;SDS011;847;48.058;7.810;2022-07-23T00:49:14;7.80;;;7.20;;
1699;SDS011;847;48.058;7.810;2022-07-23T00:51:41;7.53;;;6.63;;
1699;SDS011;847;48.058;7.810;2022-07-23T00:54:08;6.77;;;6.27;;
1699;SDS011;847;48.058;7.810;2022-07-23T00:56:35;6.93;;;6.40;;
1699;SDS011;847;48.058;7.810;2022-07-23T00:59:03;7.67;;;7.00;;
1699;SDS011;847;48.058;7.810;2022-07-23T01:01:31;7.03;;;6.53;;
1699;SDS011;847;48.058;7.810;2022-07-23T01:03:58;7.93;;;7.23;;
1699;SDS011;847;48.058;7.810;2022-07-23T01:06:24;7.30;;;6.53;;
1699;SDS011;847;48.058;7.810;2022-07-23T01:08:51;12.90;;;8.50;;
1699;SDS011;847;48.058;7.810;2022-07-23T01:11:19;16.07;;;7.20;;
1699;SDS011;847;48.058;7.810;2022-07-23T01:13:46;8.67;;;7.60;;
1699;SDS011;847;48.058;7.810;2022-07-23T01:16:15;12.43;;;7.60;;
1699;SDS011;847;48.058;7.810;2022-07-23T01:18:42;8.73;;;7.87;;
1699;SDS011;847;48.058;7.810;2022-07-23T01:21:09;7.70;;;7.10;;
1699;SDS011;847;48.058;7.810;2022-07-23T01:23:40;7.83;;;7.20;;
1699;SDS011;847;48.058;7.810;2022-07-23T01:26:07;7.80;;;7.10;;
1699;SDS011;847;48.058;7.810;2022-07-23T01:28:33;9.53;;;7.00;;
1699;SDS011;847;48.058;7.810;2022-07-23T01:31:00;7.53;;;6.80;;
1699;SDS011;847;48.058;7.810;2022-07-23T01:33:27;9.17;;;7.50;;
1699;SDS011;847;48.058;7.810;2022-07-23T01:35:53;8.53;;;7.83;;
1699;SDS011;847;48.058;7.810;2022-07-23T01:38:20;8.03;;;7.33;;
1699;SDS011;847;48.058;7.810;2022-07-23T01:40:48;9.53;;;8.73;;
1699;SDS011;847;48.058;7.810;2022-07-23T01:43:15;8.70;;;8.00;;
1699;SDS011;847;48.058;7.810;2022-07-23T01:45:41;8.47;;;7.57;;
1699;SDS011;847;48.058;7.810;2022-07-23T01:48:09;8.30;;;7.60;;
1699;SDS011;847;48.058;7.810;2022-07-23T01:50:36;8.27;;;7.60;;
1699;SDS011;847;48.058;7.810;2022-07-23T01:53:02;9.40;;;8.37;;
1699;SDS011;847;48.058;7.810;2022-07-23T01:55:29;8.50;;;7.80;;
1699;SDS011;847;48.058;7.810;2022-07-23T01:57:57;8.97;;;8.17;;
1699;SDS011;847;48.058;7.810;2022-07-23T02:00:24;9.70;;;8.73;;
1699;SDS011;847;48.058;7.810;2022-07-23T02:02:51;8.87;;;8.07;;
1699;SDS011;847;48.058;7.810;2022-07-23T02:05:17;9.23;;;8.43;;
1699;SDS011;847;48.058;7.810;2022-07-23T02:07:44;9.50;;;8.70;;
1699;SDS011;847;48.058;7.810;2022-07-23T02:10:11;9.87;;;8.87;;
1699;SDS011;847;48.058;7.810;2022-07-23T02:12:37;9.00;;;8.20;;
1699;SDS011;847;48.058;7.810;2022-07-23T02:15:06;9.10;;;8.20;;
1699;SDS011;847;48.058;7.810;2022-07-23T02:17:33;8.73;;;7.90;;
1699;SDS011;847;48.058;7.810;2022-07-23T02:20:00;8.40;;;7.60;;
1699;SDS011;847;48.058;7.810;2022-07-23T02:22:27;8.43;;;7.73;;
1699;SDS011;847;48.058;7.810;2022-07-23T02:24:54;8.60;;;7.90;;
1699;SDS011;847;48.058;7.810;2022-07-23T02:27:21;9.10;;;8.30;;
1699;SDS011;847;48.058;7.810;2022-07-23T02:29:48;8.80;;;8.10;;
1699;SDS011;847;48.058;7.810;2022-07-23T02:32:16;8.50;;;7.80;;
1699;SDS011;847;48.058;7.810;2022-07-23T02:34:42;8.47;;;7.73;;
1699;SDS011;847;48.058;7.810;2022-07-23T02:37:09;9.40;;;8.33;;
1699;SDS011;847;48.058;7.810;2022-07-23T02:39:36;8.60;;;7.90;;
1699;SDS011;847;48.058;7.810;2022-07-23T02:42:03;9.13;;;8.33;;
1699;SDS011;847;48.058;7.810;2022-07-23T02:44:30;8.47;;;7.77;;
1699;SDS011;847;48.058;7.810;2022-07-23T02:46:57;8.97;;;8.00;;
1699;SDS011;847;48.058;7.810;2022-07-23T02:49:25;7.80;;;7.00;;
1699;SDS011;847;48.058;7.810;2022-07-23T02:51:51;8.83;;;8.00;;
1699;SDS011;847;48.058;7.810;2022-07-23T02:54:18;8.33;;;7.57;;
1699;SDS011;847;48.058;7.810;2022-07-23T02:56:45;8.33;;;7.73;;
1699;SDS011;847;48.058;7.810;2022-07-23T02:59:12;7.83;;;7.13;;
1699;SDS011;847;48.058;7.810;2022-07-23T03:01:38;8.53;;;7.83;;
1699;SDS011;847;48.058;7.810;2022-07-23T03:04:05;8.50;;;7.70;;
1699;SDS011;847;48.058;7.810;2022-07-23T03:06:33;9.00;;;8.20;;
1699;SDS011;847;48.058;7.810;2022-07-23T03:09:00;9.20;;;8.30;;
1699;SDS011;847;48.058;7.810;2022-07-23T03:11:27;8.10;;;7.40;;
1699;SDS011;847;48.058;7.810;2022-07-23T03:13:54;9.57;;;8.53;;
1699;SDS011;847;48.058;7.810;2022-07-23T03:16:20;8.27;;;7.63;;
1699;SDS011;847;48.058;7.810;2022-07-23T03:18:47;8.87;;;8.07;;
1699;SDS011;847;48.058;7.810;2022-07-23T03:21:14;9.37;;;8.50;;
1699;SDS011;847;48.058;7.810;2022-07-23T03:23:42;9.13;;;8.23;;
1699;SDS011;847;48.058;7.810;2022-07-23T03:26:09;10.00;;;9.00;;
1699;SDS011;847;48.058;7.810;2022-07-23T03:28:35;9.93;;;8.70;;
1699;SDS011;847;48.058;7.810;2022-07-23T03:31:02;8.60;;;7.87;;
1699;SDS011;847;48.058;7.810;2022-07-23T03:33:29;9.17;;;8.27;;
1699;SDS011;847;48.058;7.810;2022-07-23T03:35:55;10.93;;;9.03;;
1699;SDS011;847;48.058;7.810;2022-07-23T03:38:22;9.37;;;8.67;;
1699;SDS011;847;48.058;7.810;2022-07-23T03:40:50;9.80;;;9.00;;
1699;SDS011;847;48.058;7.810;2022-07-23T03:43:17;10.40;;;9.53;;
1699;SDS011;847;48.058;7.810;2022-07-23T03:45:43;10.27;;;9.13;;
1699;SDS011;847;48.058;7.810;2022-07-23T03:48:10;9.07;;;8.27;;
1699;SDS011;847;48.058;7.810;2022-07-23T03:50:37;8.80;;;8.10;;
1699;SDS011;847;48.058;7.810;2022-07-23T03:53:04;9.63;;;8.83;;
1699;SDS011;847;48.058;7.810;2022-07-23T03:55:30;9.80;;;8.80;;
1699;SDS011;847;48.058;7.810;2022-07-23T03:57:58;10.60;;;8.73;;
1699;SDS011;847;48.058;7.810;2022-07-23T04:00:25;8.80;;;7.90;;
1699;SDS011;847;48.058;7.810;2022-07-23T04:02:52;9.60;;;8.80;;
1699;SDS011;847;48.058;7.810;2022-07-23T04:05:18;9.17;;;8.27;;
1699;SDS011;847;48.058;7.810;2022-07-23T04:07:45;9.30;;;8.60;;
1699;SDS011;847;48.058;7.810;2022-07-23T04:10:12;9.50;;;8.60;;
1699;SDS011;847;48.058;7.810;2022-07-23T04:12:39;9.70;;;8.87;;
1699;SDS011;847;48.058;7.810;2022-07-23T04:15:08;9.30;;;8.17;;
1699;SDS011;847;48.058;7.810;2022-07-23T04:17:35;8.90;;;8.20;;
1699;SDS011;847;48.058;7.810;2022-07-23T04:20:02;8.40;;;7.70;;
1699;SDS011;847;48.058;7.810;2022-07-23T04:22:29;9.90;;;8.93;;
1699;SDS011;847;48.058;7.810;2022-07-23T04:24:56;10.20;;;9.20;;
1699;SDS011;847;48.058;7.810;2022-07-23T04:27:23;10.47;;;8.80;;
1699;SDS011;847;48.058;7.810;2022-07-23T04:29:49;9.63;;;8.83;;
1699;SDS011;847;48.058;7.810;2022-07-23T04:32:17;9.77;;;8.97;;
1699;SDS011;847;48.058;7.810;2022-07-23T04:34:44;9.57;;;8.77;;
1699;SDS011;847;48.058;7.810;2022-07-23T04:37:11;9.93;;;9.03;;
1699;SDS011;847;48.058;7.810;2022-07-23T04:39:37;10.50;;;9.50;;
1699;SDS011;847;48.058;7.810;2022-07-23T04:42:04;9.90;;;9.03;;
1699;SDS011;847;48.058;7.810;2022-07-23T04:44:31;10.40;;;9.50;;
1699;SDS011;847;48.058;7.810;2022-07-23T04:46:58;11.00;;;9.93;;
1699;SDS011;847;48.058;7.810;2022-07-23T04:49:26;10.97;;;10.07;;
1699;SDS011;847;48.058;7.810;2022-07-23T04:51:52;11.00;;;10.00;;
1699;SDS011;847;48.058;7.810;2022-07-23T04:54:19;10.10;;;9.30;;
1699;SDS011;847;48.058;7.810;2022-07-23T04:56:46;10.30;;;9.40;;
1699;SDS011;847;48.058;7.810;2022-07-23T04:59:13;10.83;;;9.93;;
1699;SDS011;847;48.058;7.810;2022-07-23T05:01:39;11.43;;;10.33;;
1699;SDS011;847;48.058;7.810;2022-07-23T05:04:06;11.43;;;10.27;;
1699;SDS011;847;48.058;7.810;2022-07-23T05:06:34;11.50;;;10.40;;
1699;SDS011;847;48.058;7.810;2022-07-23T05:09:01;10.67;;;9.77;;
1699;SDS011;847;48.058;7.810;2022-07-23T05:11:28;11.37;;;10.40;;
1699;SDS011;847;48.058;7.810;2022-07-23T05:13:55;10.57;;;9.57;;
1699;SDS011;847;48.058;7.810;2022-07-23T05:16:21;10.10;;;9.20;;
1699;SDS011;847;48.058;7.810;2022-07-23T05:18:48;10.97;;;9.87;;
1699;SDS011;847;48.058;7.810;2022-07-23T05:21:15;10.60;;;9.60;;
1699;SDS011;847;48.058;7.810;2022-07-23T05:23:43;9.90;;;9.10;;
1699;SDS011;847;48.058;7.810;2022-07-23T05:26:10;9.80;;;9.00;;
1699;SDS011;847;48.058;7.810;2022-07-23T05:28:37;10.43;;;9.50;;
1699;SDS011;847;48.058;7.810;2022-07-23T05:31:04;10.20;;;9.30;;
1699;SDS011;847;48.058;7.810;2022-07-23T05:33:31;9.23;;;8.43;;
1699;SDS011;847;48.058;7.810;2022-07-23T05:35:59;9.73;;;8.80;;
1699;SDS011;847;48.058;7.810;2022-07-23T05:38:27;11.10;;;10.00;;
1699;SDS011;847;48.058;7.810;2022-07-23T05:40:56;10.90;;;10.00;;
1699;SDS011;847;48.058;7.810;2022-07-23T05:43:22;11.23;;;10.17;;
1699;SDS011;847;48.058;7.810;2022-07-23T05:45:49;11.90;;;10.90;;
1699;SDS011;847;48.058;7.810;2022-07-23T05:48:16;12.00;;;10.90;;
1699;SDS011;847;48.058;7.810;2022-07-23T05:50:42;11.37;;;10.40;;
1699;SDS011;847;48.058;7.810;2022-07-23T05:53:09;10.77;;;9.97;;
1699;SDS011;847;48.058;7.810;2022-07-23T05:55:36;11.43;;;10.53;;
1699;SDS011;847;48.058;7.810;2022-07-23T05:58:04;10.37;;;9.47;;
1699;SDS011;847;48.058;7.810;2022-07-23T06:00:31;11.87;;;10.80;;
1699;SDS011;847;48.058;7.810;2022-07-23T06:02:58;10.83;;;9.87;;
1699;SDS011;847;48.058;7.810;2022-07-23T06:05:25;10.80;;;9.53;;
1699;SDS011;847;48.058;7.810;2022-07-23T06:07:51;10.10;;;9.20;;
1699;SDS011;847;48.058;7.810;2022-07-23T06:10:19;11.03;;;10.13;;
1699;SDS011;847;48.058;7.810;2022-07-23T06:12:46;11.83;;;10.60;;
1699;SDS011;847;48.058;7.810;2022-07-23T06:15:14;10.33;;;9.43;;
1699;SDS011;847;48.058;7.810;2022-07-23T06:17:41;11.70;;;10.70;;
1699;SDS011;847;48.058;7.810;2022-07-23T06:20:08;10.50;;;9.60;;
1699;SDS011;847;48.058;7.810;2022-07-23T06:22:36;10.83;;;9.83;;
1699;SDS011;847;48.058;7.810;2022-07-23T06:25:03;11.10;;;10.17;;
1699;SDS011;847;48.058;7.810;2022-07-23T06:27:30;11.00;;;10.10;;
1699;SDS011;847;48.058;7.810;2022-07-23T06:29:57;11.60;;;10.60;;
1699;SDS011;847;48.058;7.810;2022-07-23T06:32:25;9.90;;;9.10;;
1699;SDS011;847;48.058;7.810;2022-07-23T06:34:52;10.73;;;9.80;;
1699;SDS011;847;48.058;7.810;2022-07-23T06:37:18;11.47;;;10.37;;
1699;SDS011;847;48.058;7.810;2022-07-23T06:39:45;10.80;;;9.80;;
1699;SDS011;847;48.058;7.810;2022-07-23T06:42:12;11.03;;;9.97;;
1699;SDS011;847;48.058;7.810;2022-07-23T06:44:39;10.70;;;9.80;;
1699;SDS011;847;48.058;7.810;2022-07-23T06:47:06;11.30;;;10.30;;
1699;SDS011;847;48.058;7.810;2022-07-23T06:49:34;11.80;;;10.70;;
1699;SDS011;847;48.058;7.810;2022-07-23T06:52:01;10.70;;;9.80;;
1699;SDS011;847;48.058;7.810;2022-07-23T06:54:28;11.23;;;10.23;;
1699;SDS011;847;48.058;7.810;2022-07-23T06:56:55;11.33;;;10.30;;
1699;SDS011;847;48.058;7.810;2022-07-23T06:59:22;11.57;;;10.50;;
1699;SDS011;847;48.058;7.810;2022-07-23T07:01:49;10.40;;;9.60;;
1699;SDS011;847;48.058;7.810;2022-07-23T07:04:15;11.33;;;10.33;;
1699;SDS011;847;48.058;7.810;2022-07-23T07:06:43;13.20;;;11.83;;
1699;SDS011;847;48.058;7.810;2022-07-23T07:09:10;12.53;;;11.33;;
1699;SDS011;847;48.058;7.810;2022-07-23T07:11:37;12.50;;;11.40;;
1699;SDS011;847;48.058;7.810;2022-07-23T07:14:03;12.10;;;10.97;;
1699;SDS011;847;48.058;7.810;2022-07-23T07:16:31;11.43;;;10.33;;
1699;SDS011;847;48.058;7.810;2022-07-23T07:18:58;13.33;;;12.13;;
1699;SDS011;847;48.058;7.810;2022-07-23T07:21:24;13.23;;;12.10;;
1699;SDS011;847;48.058;7.810;2022-07-23T07:23:52;12.70;;;11.60;;
1699;SDS011;847;48.058;7.810;2022-07-23T07:26:19;13.13;;;11.87;;
1699;SDS011;847;48.058;7.810;2022-07-23T07:28:46;12.53;;;11.33;;
1699;SDS011;847;48.058;7.810;2022-07-23T07:31:13;11.90;;;11.00;;
1699;SDS011;847;48.058;7.810;2022-07-23T07:33:39;12.43;;;11.13;;
1699;SDS011;847;48.058;7.810;2022-07-23T07:36:06;11.60;;;10.60;;
1699;SDS011;847;48.058;7.810;2022-07-23T07:38:33;12.23;;;10.90;;
1699;SDS011;847;48.058;7.810;2022-07-23T07:41:01;11.53;;;10.40;;
1699;SDS011;847;48.058;7.810;2022-07-23T07:43:28;11.73;;;10.63;;
1699;SDS011;847;48.058;7.810;2022-07-23T07:45:55;11.63;;;10.50;;
1699;SDS011;847;48.058;7.810;2022-07-23T07:48:21;12.07;;;10.97;;
1699;SDS011;847;48.058;7.810;2022-07-23T07:50:48;11.90;;;10.80;;
1699;SDS011;847;48.058;7.810;2022-07-23T07:53:15;11.43;;;10.53;;
1699;SDS011;847;48.058;7.810;2022-07-23T07:55:42;12.00;;;10.80;;
1699;SDS011;847;48.058;7.810;2022-07-23T07:58:10;14.93;;;11.40;;
1699;SDS011;847;48.058;7.810;2022-07-23T08:00:36;11.03;;;10.00;;
1699;SDS011;847;48.058;7.810;2022-07-23T08:03:03;11.80;;;10.70;;
1699;SDS011;847;48.058;7.810;2022-07-23T08:05:30;10.53;;;9.63;;
1699;SDS011;847;48.058;7.810;2022-07-23T08:07:57;11.57;;;10.57;;
1699;SDS011;847;48.058;7.810;2022-07-23T08:10:25;11.70;;;10.70;;
1699;SDS011;847;48.058;7.810;2022-07-23T08:12:55;11.77;;;10.73;;
1699;SDS011;847;48.058;7.810;2022-07-23T08:15:24;12.13;;;10.70;;
1699;SDS011;847;48.058;7.810;2022-07-23T08:17:52;11.60;;;10.43;;
1699;SDS011;847;48.058;7.810;2022-07-23T08:20:20;11.03;;;9.67;;
1699;SDS011;847;48.058;7.810;2022-07-23T08:22:49;11.87;;;10.77;;
1699;SDS011;847;48.058;7.810;2022-07-23T08:25:19;12.63;;;10.30;;
1699;SDS011;847;48.058;7.810;2022-07-23T08:27:47;10.53;;;9.60;;
1699;SDS011;847;48.058;7.810;2022-07-23T08:30:15;10.47;;;9.47;;
1699;SDS011;847;48.058;7.810;2022-07-23T08:32:50;11.07;;;9.90;;
1699;SDS011;847;48.058;7.810;2022-07-23T08:35:21;11.80;;;10.57;;
1699;SDS011;847;48.058;7.810;2022-07-23T08:37:49;11.07;;;10.10;;
1699;SDS011;847;48.058;7.810;2022-07-23T08:40:16;11.17;;;10.10;;
1699;SDS011;847;48.058;7.810;2022-07-23T08:42:44;10.63;;;9.63;;
1699;SDS011;847;48.058;7.810;2022-07-23T08:45:13;10.53;;;9.63;;
1699;SDS011;847;48.058;7.810;2022-07-23T08:47:43;10.67;;;9.70;;
1699;SDS011;847;48.058;7.810;2022-07-23T08:50:11;10.30;;;9.40;;
1699;SDS011;847;48.058;7.810;2022-07-23T08:52:38;10.70;;;9.63;;
1699;SDS011;847;48.058;7.810;2022-07-23T08:55:07;10.80;;;9.80;;
1699;SDS011;847;48.058;7.810;2022-07-23T08:57:34;9.67;;;8.87;;
1699;SDS011;847;48.058;7.810;2022-07-23T09:00:01;15.50;;;9.87;;
1699;SDS011;847;48.058;7.810;2022-07-23T09:02:29;9.90;;;9.10;;
1699;SDS011;847;48.058;7.810;2022-07-23T09:04:56;12.50;;;9.70;;
1699;SDS011;847;48.058;7.810;2022-07-23T09:07:24;10.27;;;9.07;;
1699;SDS011;847;48.058;7.810;2022-07-23T09:10:04;10.83;;;9.83;;
1699;SDS011;847;48.058;7.810;2022-07-23T09:12:32;11.87;;;10.87;;
1699;SDS011;847;48.058;7.810;2022-07-23T09:15:03;9.77;;;8.97;;
1699;SDS011;847;48.058;7.810;2022-07-23T09:17:36;10.20;;;9.30;;
1699;SDS011;847;48.058;7.810;2022-07-23T09:20:07;9.60;;;8.80;;
1699;SDS011;847;48.058;7.810;2022-07-23T09:22:37;11.60;;;9.50;;
1699;SDS011;847;48.058;7.810;2022-07-23T09:25:06;10.07;;;8.57;;
1699;SDS011;847;48.058;7.810;2022-07-23T09:27:47;9.37;;;8.47;;
1699;SDS011;847;48.058;7.810;2022-07-23T09:30:17;9.67;;;8.77;;
1699;SDS011;847;48.058;7.810;2022-07-23T09:32:44;9.83;;;8.93;;
1699;SDS011;847;48.058;7.810;2022-07-23T09:35:33;9.43;;;8.63;;
1699;SDS011;847;48.058;7.810;2022-07-23T09:38:11;9.87;;;8.90;;
1699;SDS011;847;48.058;7.810;2022-07-23T09:40:38;9.93;;;8.93;;
1699;SDS011;847;48.058;7.810;2022-07-23T09:43:05;9.30;;;8.40;;
1699;SDS011;847;48.058;7.810;2022-07-23T09:45:32;9.80;;;8.80;;
1699;SDS011;847;48.058;7.810;2022-07-23T09:48:09;10.00;;;9.20;;
1699;SDS011;847;48.058;7.810;2022-07-23T09:50:36;10.20;;;9.20;;
1699;SDS011;847;48.058;7.810;2022-07-23T09:53:03;10.80;;;9.90;;
1699;SDS011;847;48.058;7.810;2022-07-23T09:55:33;10.67;;;9.67;;
1699;SDS011;847;48.058;7.810;2022-07-23T09:58:03;10.73;;;9.83;;
1699;SDS011;847;48.058;7.810;2022-07-23T10:00:30;10.10;;;9.30;;
1699;SDS011;847;48.058;7.810;2022-07-23T10:03:00;10.50;;;9.60;;
1699;SDS011;847;48.058;7.810;2022-07-23T10:05:28;8.87;;;8.17;;
1699;SDS011;847;48.058;7.810;2022-07-23T10:07:56;9.13;;;8.40;;
1699;SDS011;847;48.058;7.810;2022-07-23T10:10:27;8.83;;;8.03;;
1699;SDS011;847;48.058;7.810;2022-07-23T10:12:56;9.73;;;8.73;;
1699;SDS011;847;48.058;7.810;2022-07-23T10:15:46;9.90;;;9.10;;
1699;SDS011;847;48.058;7.810;2022-07-23T10:18:13;9.37;;;8.47;;
1699;SDS011;847;48.058;7.810;2022-07-23T10:20:40;8.97;;;8.23;;
1699;SDS011;847;48.058;7.810;2022-07-23T10:23:10;9.10;;;8.30;;
1699;SDS011;847;48.058;7.810;2022-07-23T10:25:44;9.40;;;8.60;;
1699;SDS011;847;48.058;7.810;2022-07-23T10:28:21;9.77;;;8.80;;
1699;SDS011;847;48.058;7.810;2022-07-23T10:31:05;8.80;;;8.10;;
1699;SDS011;847;48.058;7.810;2022-07-23T10:33:41;9.03;;;8.13;;
1699;SDS011;847;48.058;7.810;2022-07-23T10:36:18;9.50;;;8.67;;
1699;SDS011;847;48.058;7.810;2022-07-23T10:38:50;9.00;;;8.20;;
1699;SDS011;847;48.058;7.810;2022-07-23T10:41:30;9.40;;;8.60;;
1699;SDS011;847;48.058;7.810;2022-07-23T10:44:09;8.30;;;7.70;;
1699;SDS011;847;48.058;7.810;2022-07-23T10:49:24;9.87;;;8.97;;
1699;SDS011;847;48.058;7.810;2022-07-23T10:54:45;8.90;;;8.10;;
1699;SDS011;847;48.058;7.810;2022-07-23T10:57:14;8.60;;;7.90;;
1699;SDS011;847;48.058;7.810;2022-07-23T11:02:43;8.00;;;7.30;;
1699;SDS011;847;48.058;7.810;2022-07-23T11:05:12;9.00;;;8.20;;
1699;SDS011;847;48.058;7.810;2022-07-23T11:10:45;8.93;;;8.23;;
1699;SDS011;847;48.058;7.810;2022-07-23T11:13:30;8.67;;;7.97;;
1699;SDS011;847;48.058;7.810;2022-07-23T11:16:11;9.13;;;8.33;;
1699;SDS011;847;48.058;7.810;2022-07-23T11:21:41;9.63;;;8.83;;
1699;SDS011;847;48.058;7.810;2022-07-23T11:24:12;8.70;;;8.10;;
1699;SDS011;847;48.058;7.810;2022-07-23T11:26:42;9.30;;;8.50;;
1699;SDS011;847;48.058;7.810;2022-07-23T11:32:19;8.60;;;7.97;;
1699;SDS011;847;48.058;7.810;2022-07-23T11:34:50;8.33;;;7.67;;
1699;SDS011;847;48.058;7.810;2022-07-23T11:40:04;9.43;;;8.07;;
1699;SDS011;847;48.058;7.810;2022-07-23T11:42:34;8.73;;;8.03;;
1699;SDS011;847;48.058;7.810;2022-07-23T11:45:06;9.13;;;8.40;;
1699;SDS011;847;48.058;7.810;2022-07-23T11:47:35;8.47;;;7.77;;
1699;SDS011;847;48.058;7.810;2022-07-23T11:50:03;9.63;;;8.83;;
1699;SDS011;847;48.058;7.810;2022-07-23T11:52:31;9.30;;;8.50;;
1699;SDS011;847;48.058;7.810;2022-07-23T11:54:59;8.97;;;8.23;;
1699;SDS011;847;48.058;7.810;2022-07-23T11:57:28;9.63;;;8.73;;
1699;SDS011;847;48.058;7.810;2022-07-23T11:59:57;9.13;;;8.40;;
1699;SDS011;847;48.058;7.810;2022-07-23T12:02:26;9.50;;;8.43;;
1699;SDS011;847;48.058;7.810;2022-07-23T12:04:54;10.07;;;9.27;;
1699;SDS011;847;48.058;7.810;2022-07-23T12:07:25;9.50;;;8.70;;
1699;SDS011;847;48.058;7.810;2022-07-23T12:09:53;11.13;;;10.13;;
1699;SDS011;847;48.058;7.810;2022-07-23T12:12:20;9.03;;;8.23;;
1699;SDS011;847;48.058;7.810;2022-07-23T12:14:48;12.43;;;9.80;;
1699;SDS011;847;48.058;7.810;2022-07-23T12:17:16;8.57;;;7.87;;
1699;SDS011;847;48.058;7.810;2022-07-23T12:19:42;9.50;;;8.77;;
1699;SDS011;847;48.058;7.810;2022-07-23T12:22:11;9.23;;;8.43;;
1699;SDS011;847;48.058;7.810;2022-07-23T12:24:55;9.30;;;8.60;;
1699;SDS011;847;48.058;7.810;2022-07-23T12:27:22;9.80;;;8.97;;
1699;SDS011;847;48.058;7.810;2022-07-23T12:29:50;9.47;;;8.70;;
1699;SDS011;847;48.058;7.810;2022-07-23T12:32:18;10.70;;;9.80;;
1699;SDS011;847;48.058;7.810;2022-07-23T12:34:49;10.23;;;9.30;;
1699;SDS011;847;48.058;7.810;2022-07-23T12:37:28;10.47;;;9.47;;
1699;SDS011;847;48.058;7.810;2022-07-23T12:39:56;9.63;;;8.83;;
1699;SDS011;847;48.058;7.810;2022-07-23T12:42:22;9.87;;;8.87;;
1699;SDS011;847;48.058;7.810;2022-07-23T12:45:03;9.17;;;8.37;;
1699;SDS011;847;48.058;7.810;2022-07-23T12:50:33;9.00;;;8.30;;
1699;SDS011;847;48.058;7.810;2022-07-23T12:53:04;10.17;;;9.20;;
1699;SDS011;847;48.058;7.810;2022-07-23T12:55:32;11.07;;;10.00;;
1699;SDS011;847;48.058;7.810;2022-07-23T12:58:03;10.33;;;9.43;;
1699;SDS011;847;48.058;7.810;2022-07-23T13:00:31;10.13;;;9.33;;
1699;SDS011;847;48.058;7.810;2022-07-23T13:03:20;10.17;;;9.23;;
1699;SDS011;847;48.058;7.810;2022-07-23T13:05:47;10.27;;;9.27;;
1699;SDS011;847;48.058;7.810;2022-07-23T13:08:16;9.90;;;9.00;;
1699;SDS011;847;48.058;7.810;2022-07-23T13:10:42;9.90;;;8.90;;
1699;SDS011;847;48.058;7.810;2022-07-23T13:13:11;10.33;;;9.43;;
1699;SDS011;847;48.058;7.810;2022-07-23T13:15:38;10.67;;;9.77;;
1699;SDS011;847;48.058;7.810;2022-07-23T13:18:05;10.97;;;9.90;;
1699;SDS011;847;48.058;7.810;2022-07-23T13:20:32;11.40;;;10.40;;
1699;SDS011;847;48.058;7.810;2022-07-23T13:22:59;10.43;;;9.50;;
1699;SDS011;847;48.058;7.810;2022-07-23T13:25:27;9.10;;;8.40;;
1699;SDS011;847;48.058;7.810;2022-07-23T13:27:54;9.67;;;8.87;;
1699;SDS011;847;48.058;7.810;2022-07-23T13:30:21;10.07;;;9.27;;
1699;SDS011;847;48.058;7.810;2022-07-23T13:32:47;10.20;;;9.33;;
1699;SDS011;847;48.058;7.810;2022-07-23T13:35:14;10.53;;;9.73;;
1699;SDS011;847;48.058;7.810;2022-07-23T13:37:41;10.10;;;9.33;;
1699;SDS011;847;48.058;7.810;2022-07-23T13:40:08;9.70;;;9.00;;
1699;SDS011;847;48.058;7.810;2022-07-23T13:42:37;10.07;;;9.27;;
1699;SDS011;847;48.058;7.810;2022-07-23T13:45:04;10.10;;;9.20;;
1699;SDS011;847;48.058;7.810;2022-07-23T13:47:32;10.90;;;10.00;;
1699;SDS011;847;48.058;7.810;2022-07-23T13:49:59;9.97;;;9.07;;
1699;SDS011;847;48.058;7.810;2022-07-23T13:52:26;10.50;;;9.63;;
1699;SDS011;847;48.058;7.810;2022-07-23T13:54:53;10.13;;;9.33;;
1699;SDS011;847;48.058;7.810;2022-07-23T13:57:19;10.63;;;9.60;;
1699;SDS011;847;48.058;7.810;2022-07-23T13:59:47;11.00;;;10.10;;
1699;SDS011;847;48.058;7.810;2022-07-23T14:02:15;10.10;;;9.30;;
1699;SDS011;847;48.058;7.810;2022-07-23T14:04:43;10.07;;;9.20;;
1699;SDS011;847;48.058;7.810;2022-07-23T14:07:10;10.73;;;9.93;;
1699;SDS011;847;48.058;7.810;2022-07-23T14:09:37;10.17;;;9.27;;
1699;SDS011;847;48.058;7.810;2022-07-23T14:12:05;10.50;;;9.50;;
1699;SDS011;847;48.058;7.810;2022-07-23T14:14:32;8.93;;;8.20;;
1699;SDS011;847;48.058;7.810;2022-07-23T14:17:01;10.50;;;9.60;;
1699;SDS011;847;48.058;7.810;2022-07-23T14:19:28;10.33;;;9.43;;
1699;SDS011;847;48.058;7.810;2022-07-23T14:21:55;10.60;;;9.70;;
1699;SDS011;847;48.058;7.810;2022-07-23T14:24:21;10.60;;;9.70;;
1699;SDS011;847;48.058;7.810;2022-07-23T14:26:48;10.80;;;9.90;;
1699;SDS011;847;48.058;7.810;2022-07-23T14:29:15;10.70;;;9.70;;
1699;SDS011;847;48.058;7.810;2022-07-23T14:31:42;10.07;;;9.07;;
1699;SDS011;847;48.058;7.810;2022-07-23T14:34:10;9.97;;;9.13;;
1699;SDS011;847;48.058;7.810;2022-07-23T14:36:37;10.63;;;9.70;;
1699;SDS011;847;48.058;7.810;2022-07-23T14:39:04;11.00;;;10.00;;
1699;SDS011;847;48.058;7.810;2022-07-23T14:41:33;10.73;;;9.73;;
1699;SDS011;847;48.058;7.810;2022-07-23T14:44:00;9.90;;;9.00;;
1699;SDS011;847;48.058;7.810;2022-07-23T14:46:27;9.43;;;8.83;;
1699;SDS011;847;48.058;7.810;2022-07-23T14:48:54;10.27;;;9.50;;
1699;SDS011;847;48.058;7.810;2022-07-23T14:51:22;10.80;;;9.70;;
1699;SDS011;847;48.058;7.810;2022-07-23T14:53:49;9.50;;;8.50;;
1699;SDS011;847;48.058;7.810;2022-07-23T14:56:16;10.13;;;9.20;;
1699;SDS011;847;48.058;7.810;2022-07-23T14:58:43;10.30;;;9.40;;
1699;SDS011;847;48.058;7.810;2022-07-23T15:01:09;9.37;;;8.70;;
1699;SDS011;847;48.058;7.810;2022-07-23T15:03:36;9.90;;;9.10;;
1699;SDS011;847;48.058;7.810;2022-07-23T15:06:03;9.93;;;9.03;;
1699;SDS011;847;48.058;7.810;2022-07-23T15:08:32;10.93;;;10.03;;
1699;SDS011;847;48.058;7.810;2022-07-23T15:10:58;9.93;;;8.93;;
1699;SDS011;847;48.058;7.810;2022-07-23T15:13:25;11.07;;;10.10;;
1699;SDS011;847;48.058;7.810;2022-07-23T15:15:52;10.70;;;9.63;;
1699;SDS011;847;48.058;7.810;2022-07-23T15:18:18;10.50;;;9.50;;
1699;SDS011;847;48.058;7.810;2022-07-23T15:20:45;10.17;;;9.27;;
1699;SDS011;847;48.058;7.810;2022-07-23T15:23:12;9.40;;;8.60;;
1699;SDS011;847;48.058;7.810;2022-07-23T15:25:40;10.10;;;9.30;;
1699;SDS011;847;48.058;7.810;2022-07-23T15:28:07;11.03;;;10.13;;
1699;SDS011;847;48.058;7.810;2022-07-23T15:30:33;9.93;;;9.10;;
1699;SDS011;847;48.058;7.810;2022-07-23T15:33:00;9.23;;;8.50;;
1699;SDS011;847;48.058;7.810;2022-07-23T15:35:27;9.93;;;9.03;;
1699;SDS011;847;48.058;7.810;2022-07-23T15:37:54;10.67;;;9.57;;
1699;SDS011;847;48.058;7.810;2022-07-23T15:40:21;9.77;;;9.03;;
1699;SDS011;847;48.058;7.810;2022-07-23T15:42:49;8.80;;;8.10;;
1699;SDS011;847;48.058;7.810;2022-07-23T15:45:16;9.80;;;9.00;;
1699;SDS011;847;48.058;7.810;2022-07-23T15:47:43;9.60;;;8.90;;